createdAt,value
2023-10-02T00:01:57.304Z,100044.81
2023-10-02T00:04:26.122Z,100050.31
2023-10-02T00:07:09.821Z,100062.47
2023-10-02T00:09:39.383Z,100054.47
2023-10-02T00:12:14.062Z,100066.53
2023-10-02T00:14:43.648Z,100059.38
2023-10-02T00:17:20.273Z,100068.84
2023-10-02T00:19:51.168Z,100072.00
2023-10-02T00:22:39.904Z,100065.03
2023-10-02T00:25:18.191Z,100073.66
2023-10-02T00:27:48.481Z,100064.69
2023-10-02T00:30:17.740Z,100072.69
2023-10-02T00:32:47.633Z,100071.81
2023-10-02T00:35:16.549Z,100066.50
2023-10-02T00:37:46.315Z,100068.25
2023-10-02T00:40:32.467Z,100063.94
2023-10-02T00:43:01.518Z,100068.31
2023-10-02T00:45:40.416Z,100067.31
2023-10-02T00:48:27.356Z,100057.47
2023-10-02T00:51:00.021Z,100065.78
2023-10-02T00:53:40.809Z,100068.44
2023-10-02T00:56:23.069Z,100070.38
2023-10-02T00:58:57.377Z,100071.25
2023-10-02T01:04:26.088Z,100067.63
2023-10-02T01:07:06.843Z,100073.59
2023-10-02T01:09:37.997Z,100072.75
2023-10-02T01:12:05.537Z,100077.28
2023-10-02T01:14:51.108Z,100076.31
2023-10-02T01:17:19.211Z,100077.19
2023-10-02T01:19:57.885Z,100071.06
2023-10-02T01:22:30.110Z,100071.00
2023-10-02T01:25:18.541Z,100070.16
2023-10-02T01:27:52.102Z,100058.72
2023-10-02T01:30:23.949Z,100061.41
2023-10-02T01:33:14.010Z,100063.16
2023-10-02T01:36:00.344Z,100060.69
2023-10-02T01:38:32.518Z,100065.97
2023-10-02T01:41:05.089Z,100054.66
2023-10-02T01:43:34.709Z,100060.75
2023-10-02T01:46:07.967Z,100063.44
2023-10-02T01:48:43.262Z,100065.94
2023-10-02T01:51:22.274Z,100069.34
2023-10-02T01:53:53.450Z,100059.81
2023-10-02T01:56:21.551Z,100063.19
2023-10-02T01:58:53.243Z,100074.56
2023-10-02T02:01:22.336Z,100071.19
2023-10-02T02:03:51.949Z,100065.03
2023-10-02T02:06:25.298Z,100063.38
2023-10-02T02:09:02.997Z,100070.25
2023-10-02T02:11:36.307Z,100061.69
2023-10-02T02:14:05.895Z,100066.84
2023-10-02T02:16:35.735Z,100060.81
2023-10-02T02:19:09.523Z,100059.81
2023-10-02T02:21:37.164Z,100068.44
2023-10-02T02:24:09.110Z,100062.31
2023-10-02T02:26:39.392Z,100061.50
2023-10-02T02:29:26.108Z,100066.63
2023-10-02T02:31:56.762Z,100064.19
2023-10-02T02:34:25.159Z,100068.59
2023-10-02T02:36:52.749Z,100068.66
2023-10-02T02:39:24.308Z,100069.47
2023-10-02T02:42:13.266Z,100066.13
2023-10-02T02:44:47.202Z,100071.22
2023-10-02T02:47:16.499Z,100073.00
2023-10-02T02:50:00.082Z,100087.78
2023-10-02T02:52:34.160Z,100072.06
2023-10-02T02:55:06.685Z,100070.41
2023-10-02T02:57:39.959Z,100075.66
2023-10-02T03:00:27.471Z,100079.88
2023-10-02T03:03:01.686Z,100080.81
2023-10-02T03:05:42.626Z,100083.47
2023-10-02T03:08:15.962Z,100078.34
2023-10-02T03:10:48.083Z,100081.75
2023-10-02T03:13:18.424Z,100092.31
2023-10-02T03:15:53.039Z,100087.97
2023-10-02T03:18:32.838Z,100097.38
2023-10-02T03:21:15.723Z,100094.63
2023-10-02T03:23:45.761Z,100093.72
2023-10-02T03:26:49.657Z,100095.25
2023-10-02T03:29:24.073Z,100093.53
2023-10-02T03:31:52.632Z,100095.25
2023-10-02T03:34:32.010Z,100089.91
2023-10-02T03:37:02.003Z,100103.06
2023-10-02T03:39:52.412Z,100099.59
2023-10-02T03:42:27.297Z,100108.09
2023-10-02T03:44:58.203Z,100109.78
2023-10-02T03:47:27.539Z,100117.59
2023-10-02T03:50:02.677Z,100118.31
2023-10-02T03:52:33.081Z,100120.91
2023-10-02T03:55:16.485Z,100118.31
2023-10-02T03:57:57.083Z,100121.09
2023-10-02T04:14:59.010Z,100136.50
2023-10-02T04:17:36.188Z,100134.63
2023-10-02T04:20:06.977Z,100136.00
2023-10-02T04:22:36.810Z,100143.78
2023-10-02T04:25:06.930Z,100136.66
2023-10-02T04:27:44.873Z,100137.28
2023-10-02T04:30:17.057Z,100137.44
2023-10-02T04:32:53.110Z,100141.75
2023-10-02T04:35:39.484Z,100137.13
2023-10-02T04:38:10.059Z,100133.78
2023-10-02T04:40:53.315Z,100142.25
2023-10-02T04:43:30.247Z,100145.66
2023-10-02T04:46:10.033Z,100149.16
2023-10-02T04:48:48.203Z,100152.63
2023-10-02T04:51:17.563Z,100144.09
2023-10-02T04:53:47.299Z,100156.47
2023-10-02T04:56:20.589Z,100145.34
2023-10-02T04:58:58.764Z,100148.34
2023-10-02T05:01:31.114Z,100149.38
2023-10-02T05:04:04.760Z,100156.25
2023-10-02T05:07:05.106Z,100156.88
2023-10-02T05:09:40.011Z,100162.63
2023-10-02T05:12:07.956Z,100162.13
2023-10-02T05:14:46.340Z,100163.34
2023-10-02T05:17:20.152Z,100168.94
2023-10-02T05:20:05.133Z,100173.44
2023-10-02T05:22:34.094Z,100177.22
2023-10-02T05:25:01.619Z,100177.34
2023-10-02T05:27:38.356Z,100177.41
2023-10-02T05:30:15.439Z,100186.28
2023-10-02T05:32:43.257Z,100182.78
2023-10-02T05:35:13.950Z,100190.63
2023-10-02T05:37:43.478Z,100196.75
2023-10-02T05:40:34.936Z,100199.28
2023-10-02T05:43:02.215Z,100195.50
2023-10-02T05:45:48.632Z,100197.03
2023-10-02T05:48:28.117Z,100198.59
2023-10-02T05:51:00.892Z,100210.75
2023-10-02T05:53:33.938Z,100207.06
2023-10-02T05:56:07.682Z,100204.16
2023-10-02T05:58:40.819Z,100210.53
2023-10-02T06:01:20.370Z,100222.72
2023-10-02T06:04:02.690Z,100215.47
2023-10-02T06:06:37.961Z,100222.75
2023-10-02T06:09:14.870Z,100219.72
2023-10-02T06:12:01.379Z,100218.44
2023-10-02T06:14:28.632Z,100221.16
2023-10-02T06:16:55.979Z,100222.88
2023-10-02T06:19:23.610Z,100223.56
2023-10-02T06:22:06.290Z,100212.47
2023-10-02T06:24:33.472Z,100221.59
2023-10-02T06:27:05.956Z,100213.00
2023-10-02T06:29:37.543Z,100225.84
2023-10-02T06:32:21.860Z,100221.50
2023-10-02T06:34:52.116Z,100226.28
2023-10-02T06:37:22.937Z,100214.59
2023-10-02T06:40:25.595Z,100223.81
2023-10-02T06:42:59.040Z,100227.84
2023-10-02T06:45:28.350Z,100225.88
2023-10-02T06:47:58.135Z,100224.91
2023-10-02T06:50:29.304Z,100225.69
2023-10-02T06:52:56.950Z,100227.56
2023-10-02T06:55:26.243Z,100219.06
2023-10-02T06:57:58.064Z,100227.31
2023-10-02T07:00:37.779Z,100221.09
2023-10-02T07:03:05.786Z,100221.31
2023-10-02T07:05:36.050Z,100226.06
2023-10-02T07:08:45.204Z,100226.78
2023-10-02T07:11:12.711Z,100227.34
2023-10-02T07:13:52.612Z,100229.56
2023-10-02T07:16:19.838Z,100226.63
2023-10-02T07:18:54.920Z,100231.94
2023-10-02T07:21:23.199Z,100236.66
2023-10-02T07:23:50.593Z,100230.31
2023-10-02T07:26:40.024Z,100238.91
2023-10-02T07:29:08.028Z,100234.22
2023-10-02T07:31:36.062Z,100244.13
2023-10-02T07:34:03.669Z,100242.84
2023-10-02T07:36:34.428Z,100240.31
2023-10-02T07:39:24.076Z,100236.84
2023-10-02T07:42:01.626Z,100252.31
2023-10-02T07:44:38.948Z,100247.25
2023-10-02T07:47:12.628Z,100249.06
2023-10-02T07:49:41.436Z,100257.97
2023-10-02T07:52:09.396Z,100256.72
2023-10-02T07:54:45.908Z,100261.47
2023-10-02T07:57:15.920Z,100261.53
2023-10-02T07:59:45.224Z,100262.66
2023-10-02T08:02:38.901Z,100263.22
2023-10-02T08:05:06.330Z,100268.03
2023-10-02T08:07:44.552Z,100255.66
2023-10-02T08:10:17.374Z,100263.84
2023-10-02T08:12:57.433Z,100261.53
2023-10-02T08:15:28.088Z,100258.81
2023-10-02T08:17:55.643Z,100268.16
2023-10-02T08:20:33.696Z,100265.09
2023-10-02T08:23:03.650Z,100265.91
2023-10-02T08:25:31.066Z,100274.69
2023-10-02T08:27:59.049Z,100266.72
2023-10-02T08:30:36.525Z,100273.66
2023-10-02T08:33:25.455Z,100272.84
2023-10-02T08:35:59.881Z,100279.53
2023-10-02T08:38:29.732Z,100279.72
2023-10-02T08:41:04.369Z,100281.50
2023-10-02T08:43:44.877Z,100285.22
2023-10-02T08:46:20.505Z,100278.28
2023-10-02T08:48:58.222Z,100288.72
2023-10-02T08:51:34.900Z,100289.28
2023-10-02T08:54:07.036Z,100286.22
2023-10-02T08:56:50.342Z,100286.16
2023-10-02T08:59:20.245Z,100279.94
2023-10-02T09:01:51.652Z,100280.47
2023-10-02T09:04:28.099Z,100286.44
2023-10-02T09:06:59.757Z,100283.41
2023-10-02T09:09:36.195Z,100283.28
2023-10-02T09:12:05.062Z,100277.72
2023-10-02T09:14:35.073Z,100275.59
2023-10-02T09:17:23.563Z,100274.13
2023-10-02T09:20:01.809Z,100272.31
2023-10-02T09:22:29.605Z,100264.78
2023-10-02T09:24:59.022Z,100264.63
2023-10-02T09:27:39.705Z,100263.66
2023-10-02T09:30:23.348Z,100257.00
2023-10-02T09:32:53.535Z,100262.72
2023-10-02T09:35:52.286Z,100262.59
2023-10-02T09:38:18.684Z,100264.34
2023-10-02T09:41:02.944Z,100261.19
2023-10-02T09:43:34.594Z,100259.59
2023-10-02T09:46:07.646Z,100266.63
2023-10-02T09:48:59.232Z,100264.22
2023-10-02T09:51:32.179Z,100268.84
2023-10-02T09:54:14.610Z,100271.22
2023-10-02T09:57:06.690Z,100267.53
2023-10-02T09:59:49.464Z,100264.34
2023-10-02T10:02:24.408Z,100262.91
2023-10-02T10:05:23.459Z,100264.50
2023-10-02T10:07:53.109Z,100265.09
2023-10-02T10:10:47.275Z,100255.44
2023-10-02T10:13:35.395Z,100240.38
2023-10-02T10:16:20.561Z,100250.66
2023-10-02T10:19:19.297Z,100243.97
2023-10-02T10:21:59.398Z,100244.13
2023-10-02T10:24:58.646Z,100235.25
2023-10-02T10:27:43.425Z,100230.63
2023-10-02T10:30:28.484Z,100231.72
2023-10-02T10:33:10.536Z,100239.13
2023-10-02T10:35:53.058Z,100233.16
2023-10-02T10:38:29.043Z,100226.44
2023-10-02T10:41:02.530Z,100222.34
2023-10-02T10:43:53.723Z,100224.66
2023-10-02T10:46:21.725Z,100212.47
2023-10-02T10:49:05.104Z,100211.41
2023-10-02T10:51:35.455Z,100206.72
2023-10-02T10:54:31.226Z,100204.53
2023-10-02T10:57:36.199Z,100201.03
2023-10-02T11:00:27.462Z,100193.69
2023-10-02T11:03:15.490Z,100190.34
2023-10-02T11:05:43.431Z,100194.91
2023-10-02T11:08:29.693Z,100186.88
2023-10-02T11:11:26.940Z,100192.22
2023-10-02T11:14:02.064Z,100191.53
2023-10-02T11:16:37.661Z,100165.22
2023-10-02T11:19:23.228Z,100173.22
2023-10-02T11:22:23.120Z,100164.63
2023-10-02T11:24:54.122Z,100161.94
2023-10-02T11:27:22.994Z,100161.59
2023-10-02T11:30:04.753Z,100162.94
2023-10-02T11:33:20.847Z,100169.97
2023-10-02T11:35:48.029Z,100158.56
2023-10-02T11:38:19.552Z,100157.88
2023-10-02T11:40:46.616Z,100156.50
2023-10-02T12:19:53.311Z,100129.66
2023-10-02T12:27:54.519Z,100125.69
2023-10-02T12:30:21.757Z,100118.72
2023-10-02T12:32:51.692Z,100116.22
2023-10-02T12:35:20.070Z,100112.63
2023-10-02T12:37:47.306Z,100110.38
2023-10-02T12:40:20.158Z,100106.19
2023-10-02T12:42:47.270Z,100102.06
2023-10-02T12:45:15.302Z,100101.34
2023-10-02T12:47:42.463Z,100102.06
2023-10-02T12:50:12.789Z,100103.72
2023-10-02T12:52:40.166Z,100106.91
2023-10-02T12:55:07.523Z,100098.53
2023-10-02T12:57:39.851Z,100100.53
2023-10-02T13:00:18.484Z,100104.34
2023-10-02T13:02:46.480Z,100098.28
2023-10-02T13:05:13.725Z,100097.19
2023-10-02T13:07:41.552Z,100095.94
2023-10-02T13:10:10.259Z,100088.09
2023-10-02T13:12:37.310Z,100083.97
2023-10-02T13:15:04.732Z,100079.84
2023-10-02T13:17:33.436Z,100072.91
2023-10-02T13:20:01.123Z,100076.72
2023-10-02T13:22:28.347Z,100067.56
2023-10-02T13:24:55.393Z,100070.41
2023-10-02T13:27:23.049Z,100072.03
2023-10-02T13:29:52.635Z,100077.41
2023-10-02T13:32:20.541Z,100066.56
2023-10-02T13:34:49.098Z,100073.88
2023-10-02T13:37:15.979Z,100082.97
2023-10-02T13:39:43.207Z,100076.53
2023-10-02T13:42:10.153Z,100080.09
2023-10-02T13:44:37.043Z,100077.91
2023-10-02T13:47:08.780Z,100066.25
2023-10-02T13:49:38.708Z,100075.06
2023-10-02T13:52:07.310Z,100069.09
2023-10-02T13:54:34.697Z,100055.13
2023-10-02T13:57:04.047Z,100068.50
2023-10-02T13:59:32.772Z,100064.38
2023-10-02T14:02:00.963Z,100067.28
2023-10-02T14:04:30.315Z,100061.13
2023-10-02T14:06:57.726Z,100075.06
2023-10-02T14:09:25.766Z,100071.06
2023-10-02T14:11:53.527Z,100067.13
2023-10-02T14:14:20.518Z,100072.31
2023-10-02T14:16:47.657Z,100059.44
2023-10-02T14:19:14.600Z,100062.84
2023-10-02T14:21:41.424Z,100068.91
2023-10-02T14:24:11.027Z,100070.13
2023-10-02T14:26:38.624Z,100074.31
2023-10-02T14:29:13.354Z,100072.59
2023-10-02T14:31:40.566Z,100072.44
2023-10-02T14:34:08.373Z,100077.81
2023-10-02T14:36:35.539Z,100080.06
2023-10-02T14:39:05.577Z,100081.91
2023-10-02T14:41:32.893Z,100080.34
2023-10-02T14:43:59.961Z,100076.63
2023-10-02T14:46:26.885Z,100073.41
2023-10-02T14:48:54.821Z,100080.56
2023-10-02T14:51:21.956Z,100080.75
2023-10-02T14:53:48.818Z,100071.94
2023-10-02T14:56:15.700Z,100065.16
2023-10-02T14:58:48.964Z,100075.75
2023-10-02T15:01:19.207Z,100076.22
2023-10-02T15:03:48.919Z,100084.50
2023-10-02T15:06:16.121Z,100077.56
2023-10-02T15:08:43.386Z,100081.16
2023-10-02T15:11:16.112Z,100076.41
2023-10-02T15:13:44.116Z,100078.06
2023-10-02T15:16:13.725Z,100070.25
2023-10-02T15:18:41.453Z,100076.31
2023-10-02T15:21:09.474Z,100067.66
2023-10-02T15:23:36.468Z,100075.66
2023-10-02T15:26:04.185Z,100072.34
2023-10-02T15:28:32.547Z,100080.28
2023-10-02T15:30:59.921Z,100069.16
2023-10-02T15:33:27.393Z,100072.72
2023-10-02T15:35:54.501Z,100075.47
2023-10-02T15:38:21.637Z,100078.25
2023-10-02T15:40:48.932Z,100086.16
2023-10-02T15:43:16.584Z,100088.19
2023-10-02T15:45:46.584Z,100081.09
2023-10-02T15:48:13.601Z,100086.50
2023-10-02T15:50:41.788Z,100084.78
2023-10-02T15:53:08.940Z,100087.56
2023-10-02T15:55:35.856Z,100089.50
2023-10-02T15:58:03.097Z,100091.34
2023-10-02T16:00:30.316Z,100087.16
2023-10-02T16:03:01.956Z,100095.19
2023-10-02T16:05:30.815Z,100091.81
2023-10-02T16:07:58.152Z,100092.03
2023-10-02T16:10:26.346Z,100088.66
2023-10-02T16:12:54.286Z,100095.00
2023-10-02T16:15:24.984Z,100095.16
2023-10-02T16:17:55.091Z,100097.94
2023-10-02T16:20:24.022Z,100102.34
2023-10-02T16:22:55.692Z,100104.19
2023-10-02T16:25:22.906Z,100103.44
2023-10-02T16:27:52.154Z,100101.75
2023-10-02T16:30:22.020Z,100097.50
2023-10-02T16:32:50.453Z,100097.63
2023-10-02T16:35:20.190Z,100098.59
2023-10-02T16:37:49.688Z,100100.38
2023-10-02T16:40:20.471Z,100105.78
2023-10-02T16:42:48.629Z,100112.00
2023-10-02T16:45:18.297Z,100118.13
2023-10-02T16:47:46.820Z,100117.41
2023-10-02T16:50:15.437Z,100125.34
2023-10-02T16:52:45.708Z,100125.38
2023-10-02T16:55:25.008Z,100119.28
2023-10-02T16:57:52.390Z,100122.84
2023-10-02T17:00:22.242Z,100129.00
2023-10-02T17:02:52.438Z,100127.34
2023-10-02T17:05:20.660Z,100130.00
2023-10-02T17:07:51.102Z,100125.69
2023-10-02T17:10:25.227Z,100134.44
2023-10-02T17:12:57.341Z,100133.59
2023-10-02T17:15:24.606Z,100136.28
2023-10-02T17:17:51.891Z,100135.38
2023-10-02T17:20:22.337Z,100131.06
2023-10-02T17:22:50.945Z,100132.75
2023-10-02T17:25:26.457Z,100133.63
2023-10-02T17:28:00.211Z,100141.53
2023-10-02T17:30:28.211Z,100139.78
2023-10-02T17:32:56.942Z,100139.78
2023-10-02T17:35:24.601Z,100136.28
2023-10-02T17:37:52.373Z,100145.94
2023-10-02T17:40:22.095Z,100137.19
2023-10-02T17:42:49.525Z,100144.16
2023-10-02T17:45:16.646Z,100154.69
2023-10-02T17:47:46.016Z,100145.13
2023-10-02T17:50:14.683Z,100148.59
2023-10-02T17:52:42.901Z,100151.25
2023-10-02T17:55:10.702Z,100149.47
2023-10-02T17:57:38.090Z,100153.00
2023-10-02T18:00:05.545Z,100159.19
2023-10-02T18:02:36.450Z,100153.94
2023-10-02T18:05:04.791Z,100160.91
2023-10-02T18:07:32.504Z,100160.03
2023-10-02T18:09:59.502Z,100160.91
2023-10-02T18:12:26.624Z,100161.81
2023-10-02T18:14:53.734Z,100160.94
2023-10-02T18:17:20.729Z,100174.03
2023-10-02T18:19:48.580Z,100164.41
2023-10-02T18:22:16.158Z,100173.16
2023-10-02T18:24:43.922Z,100174.94
2023-10-02T18:27:11.789Z,100182.78
2023-10-02T18:29:39.277Z,100174.06
2023-10-02T18:32:06.362Z,100172.28
2023-10-02T18:34:43.671Z,100182.75
2023-10-02T18:37:12.585Z,100175.78
2023-10-02T18:39:39.766Z,100187.13
2023-10-02T18:42:06.686Z,100184.50
2023-10-02T18:44:40.047Z,100167.91
2023-10-02T18:47:08.337Z,100183.56
2023-10-02T18:49:36.896Z,100183.59
2023-10-02T18:52:05.218Z,100179.19
2023-10-02T18:54:32.752Z,100187.91
2023-10-02T18:57:00.437Z,100183.50
2023-10-02T18:59:27.795Z,100188.75
2023-10-02T19:01:54.771Z,100186.09
2023-10-02T19:04:22.761Z,100179.97
2023-10-02T19:06:49.954Z,100179.06
2023-10-02T19:09:19.080Z,100188.69
2023-10-02T19:11:49.424Z,100188.69
2023-10-02T19:14:19.137Z,100188.63
2023-10-02T19:16:46.216Z,100192.94
2023-10-02T19:19:13.330Z,100183.38
2023-10-02T19:21:40.306Z,100192.09
2023-10-02T19:24:09.942Z,100198.19
2023-10-02T19:26:37.748Z,100188.59
2023-10-02T19:29:05.035Z,100198.06
2023-10-02T19:31:32.295Z,100196.34
2023-10-02T19:33:59.413Z,100198.13
2023-10-02T19:36:26.519Z,100192.88
2023-10-02T19:38:53.557Z,100193.69
2023-10-02T19:41:21.249Z,100199.81
2023-10-02T19:43:52.655Z,100191.84
2023-10-02T19:46:19.685Z,100191.63
2023-10-02T19:48:47.366Z,100202.72
2023-10-02T19:51:15.808Z,100202.78
2023-10-02T19:53:43.738Z,100202.75
2023-10-02T19:56:13.594Z,100198.50
2023-10-02T19:58:40.807Z,100201.16
2023-10-02T20:04:32.905Z,100203.84
2023-10-02T20:07:00.998Z,100201.34
2023-10-02T20:09:27.873Z,100204.72
2023-10-02T20:11:55.265Z,100205.66
2023-10-02T20:14:22.408Z,100208.22
2023-10-02T20:16:50.770Z,100210.88
2023-10-02T20:19:18.918Z,100210.63
2023-10-02T20:21:46.252Z,100209.78
2023-10-02T20:24:19.116Z,100209.72
2023-10-02T20:26:47.845Z,100216.78
2023-10-02T20:29:15.441Z,100208.94
2023-10-02T20:31:44.409Z,100212.41
2023-10-02T20:34:26.171Z,100204.44
2023-10-02T20:37:00.728Z,100211.38
2023-10-02T20:39:28.687Z,100212.78
2023-10-02T20:41:56.319Z,100213.66
2023-10-02T20:44:23.316Z,100212.69
2023-10-02T20:46:56.240Z,100216.03
2023-10-02T20:49:30.137Z,100216.19
2023-10-02T20:51:57.169Z,100212.84
2023-10-02T20:54:24.272Z,100206.81
2023-10-02T20:56:51.155Z,100209.44
2023-10-02T20:59:20.665Z,100214.66
2023-10-02T21:01:48.577Z,100222.47
2023-10-02T21:04:15.884Z,100213.78
2023-10-02T21:06:42.746Z,100218.22
2023-10-02T21:09:09.707Z,100217.34
2023-10-02T21:11:36.755Z,100221.63
2023-10-02T21:14:04.605Z,100224.25
2023-10-02T21:16:32.486Z,100219.00
2023-10-02T21:18:59.858Z,100218.94
2023-10-02T21:21:26.812Z,100213.72
2023-10-02T21:23:53.626Z,100212.81
2023-10-02T21:26:20.597Z,100218.03
2023-10-02T21:28:47.461Z,100211.84
2023-10-02T21:31:14.821Z,100211.00
2023-10-02T21:33:41.781Z,100214.34
2023-10-02T21:36:08.956Z,100217.06
2023-10-02T21:38:41.574Z,100210.00
2023-10-02T21:41:17.022Z,100217.84
2023-10-02T21:43:47.221Z,100214.28
2023-10-02T21:46:14.697Z,100217.81
2023-10-02T21:48:42.505Z,100213.41
2023-10-02T21:51:11.259Z,100213.31
2023-10-02T21:53:42.041Z,100211.59
2023-10-02T21:56:17.767Z,100210.88
2023-10-02T21:58:45.739Z,100222.22
2023-10-02T22:01:18.143Z,100217.00
2023-10-02T22:03:45.487Z,100212.56
2023-10-02T22:06:12.593Z,100210.75
2023-10-02T22:08:43.086Z,100205.41
2023-10-02T22:11:10.659Z,100208.03
2023-10-02T22:13:37.719Z,100202.75
2023-10-02T22:16:05.838Z,100202.81
2023-10-02T22:18:33.071Z,100205.47
2023-10-02T22:21:01.919Z,100200.97
2023-10-02T22:23:35.162Z,100208.75
2023-10-02T22:26:04.322Z,100200.91
2023-10-02T22:28:31.727Z,100203.59
2023-10-02T22:31:03.028Z,100202.66
2023-10-02T22:33:30.881Z,100207.00
2023-10-02T22:35:57.941Z,100196.16
2023-10-02T22:38:25.001Z,100207.50
2023-10-02T22:40:52.221Z,100212.00
2023-10-02T22:43:19.098Z,100205.94
2023-10-02T22:45:46.451Z,100206.81
2023-10-02T22:48:15.415Z,100208.59
2023-10-02T22:50:47.674Z,100216.44
2023-10-02T22:53:14.611Z,100202.47
2023-10-02T22:55:43.431Z,100204.13
2023-10-02T22:58:10.382Z,100206.69
2023-10-02T23:00:37.443Z,100209.38
2023-10-02T23:03:06.880Z,100208.19
2023-10-02T23:05:34.392Z,100216.81
2023-10-02T23:08:01.316Z,100211.38
2023-10-02T23:10:29.104Z,100210.00
2023-10-02T23:12:56.750Z,100216.81
2023-10-02T23:15:24.763Z,100216.22
2023-10-02T23:17:53.129Z,100212.72
2023-10-02T23:20:21.824Z,100209.13
2023-10-02T23:22:50.050Z,100212.44
2023-10-02T23:25:19.775Z,100212.03
2023-10-02T23:27:52.881Z,100211.13
2023-10-02T23:30:22.151Z,100203.06
2023-10-02T23:32:51.548Z,100196.28
2023-10-02T23:35:19.814Z,100206.66
2023-10-02T23:37:47.358Z,100214.69
2023-10-02T23:40:16.578Z,100205.13
2023-10-02T23:42:43.465Z,100213.75
2023-10-02T23:45:15.581Z,100216.41
2023-10-02T23:47:46.599Z,100212.97
2023-10-02T23:50:18.132Z,100199.13
2023-10-02T23:52:48.765Z,100197.38
2023-10-02T23:55:17.038Z,100200.94
2023-10-02T23:57:44.569Z,100196.50
